Time;durP1;ratioP1;P1;durP2;ratioP2;P2;SDS_P1;SDS_P2;PMS_P1;PMS_P2;Temp;Humidity;BMP_temperature;BMP_pressure;BME280_temperature;BME280_humidity;BME280_pressure;Samples;Min_cycle;Max_cycle;Signal;HPM_P1;HPM_P2
2021/03/23 00:01:05;;;;;;;;;;;;;;;17.52;33.73;100811.25;4417964;32;19946;-58
2021/03/23 00:03:31;;;;;;;;;;;;;;;17.58;33.63;100813.19;4418865;32;20330;-57
2021/03/23 00:05:57;;;;;;;;;;;;;;;17.56;33.69;100813.13;4418845;32;19958;-57
2021/03/23 00:08:22;;;;;;;;;;;;;;;17.58;33.58;100813.19;4417368;32;20052;-56
2021/03/23 00:10:48;;;;;;;;;;;;;;;17.54;33.63;100814.84;4418519;32;19974;-55
2021/03/23 00:13:14;;;;;;;;;;;;;;;17.57;33.65;100812.28;4418603;32;20062;-58
2021/03/23 00:15:40;;;;;;;;;;;;;;;17.58;33.58;100816.69;4418152;32;20084;-57
2021/03/23 00:18:06;;;;;;;;;;;;;;;17.53;33.71;100813.06;4416701;32;19950;-56
2021/03/23 00:20:32;;;;;;;;;;;;;;;17.59;33.56;100813.22;4418374;32;19950;-57
2021/03/23 00:22:58;;;;;;;;;;;;;;;17.56;33.69;100810.50;4418272;32;19977;-57
2021/03/23 00:25:24;;;;;;;;;;;;;;;17.56;33.61;100811.41;4417290;32;19982;-56
2021/03/23 00:27:49;;;;;;;;;;;;;;;17.52;33.70;100811.25;4417705;32;20343;-57
2021/03/23 00:30:15;;;;;;;;;;;;;;;17.53;33.71;100810.41;4417485;32;19954;-56
2021/03/23 00:32:41;;;;;;;;;;;;;;;17.58;33.57;100814.06;4418720;32;19954;-57
2021/03/23 00:35:07;;;;;;;;;;;;;;;17.59;33.56;100815.84;4417458;32;20279;-58
2021/03/23 00:37:33;;;;;;;;;;;;;;;17.49;33.74;100805.91;4417769;32;20009;-57
2021/03/23 00:39:59;;;;;;;;;;;;;;;17.45;33.80;100812.81;4418087;32;20835;-55
2021/03/23 00:42:25;;;;;;;;;;;;;;;17.48;33.85;100804.13;4418013;32;19997;-56
2021/03/23 00:44:51;;;;;;;;;;;;;;;17.49;33.73;100808.53;4417803;32;19950;-57
2021/03/23 00:47:17;;;;;;;;;;;;;;;17.51;33.69;100806.84;4417181;32;19990;-57
2021/03/23 00:49:42;;;;;;;;;;;;;;;17.48;33.78;100812.03;4417652;32;19994;-57
2021/03/23 00:52:08;;;;;;;;;;;;;;;17.38;33.90;100814.38;4417501;32;19962;-57
2021/03/23 00:54:35;;;;;;;;;;;;;;;17.53;33.64;100810.41;4416056;32;19974;-57
2021/03/23 00:57:01;;;;;;;;;;;;;;;17.50;33.72;100805.94;4415897;32;19973;-57
2021/03/23 00:59:28;;;;;;;;;;;;;;;17.54;33.68;100814.84;4417771;32;19995;-56
2021/03/23 01:01:53;;;;;;;;;;;;;;;17.51;33.73;100806.84;4418073;32;19974;-57
2021/03/23 01:04:19;;;;;;;;;;;;;;;17.50;33.78;100807.69;4417478;32;20349;-58
2021/03/23 01:06:45;;;;;;;;;;;;;;;17.46;33.75;100801.44;4418355;32;19950;-57
2021/03/23 01:09:11;;;;;;;;;;;;;;;17.53;33.64;100808.69;4416645;32;20022;-57
2021/03/23 01:11:37;;;;;;;;;;;;;;;17.51;33.70;100804.22;4405277;32;19979;-57
2021/03/23 01:14:03;;;;;;;;;;;;;;;17.52;33.69;100808.62;4403600;32;20256;-56
2021/03/23 01:16:29;;;;;;;;;;;;;;;17.44;33.85;100803.13;4403933;32;19990;-57
2021/03/23 01:18:55;;;;;;;;;;;;;;;17.35;33.96;100802.84;4416300;32;19946;-56
2021/03/23 01:21:21;;;;;;;;;;;;;;;17.28;34.19;100804.38;4417763;32;20001;-57
2021/03/23 01:23:47;;;;;;;;;;;;;;;17.30;34.10;100804.44;4418164;32;19958;-57
2021/03/23 01:26:12;;;;;;;;;;;;;;;17.26;34.12;100806.94;4417894;32;19989;-57
2021/03/23 01:28:38;;;;;;;;;;;;;;;17.44;33.89;100807.50;4417743;32;19997;-56
2021/03/23 01:31:04;;;;;;;;;;;;;;;17.47;33.72;100808.47;4416964;32;20038;-57
2021/03/23 01:33:30;;;;;;;;;;;;;;;17.49;33.72;100805.91;4417762;32;19981;-57
2021/03/23 01:35:56;;;;;;;;;;;;;;;17.49;33.73;100811.19;4418069;32;19975;-56
2021/03/23 01:38:22;;;;;;;;;;;;;;;17.55;33.59;100806.09;4417373;32;19946;-55
2021/03/23 01:40:48;;;;;;;;;;;;;;;17.47;33.73;100804.94;4417940;32;19965;-56
2021/03/23 01:43:14;;;;;;;;;;;;;;;17.25;34.17;100806.91;4417547;32;19965;-56
2021/03/23 01:45:40;;;;;;;;;;;;;;;17.31;34.05;100801.84;4416483;32;20315;-56
2021/03/23 01:48:06;;;;;;;;;;;;;;;17.32;34.07;100806.25;4416476;32;19954;-58
2021/03/23 01:50:32;;;;;;;;;;;;;;;17.39;33.91;100805.63;4417411;32;19951;-57
2021/03/23 01:52:58;;;;;;;;;;;;;;;17.53;33.68;100797.25;4416736;32;19950;-58
2021/03/23 01:55:24;;;;;;;;;;;;;;;17.44;33.79;100808.41;4416053;32;20322;-57
2021/03/23 01:57:49;;;;;;;;;;;;;;;17.40;33.91;100807.41;4406064;32;19969;-56
2021/03/23 02:00:15;;;;;;;;;;;;;;;17.44;33.84;100804.84;4402097;32;19938;-56
2021/03/23 02:02:41;;;;;;;;;;;;;;;17.47;33.79;100805.84;4416030;32;20070;-57
2021/03/23 02:05:07;;;;;;;;;;;;;;;17.54;33.62;100802.56;4417180;32;19976;-57
2021/03/23 02:07:33;;;;;;;;;;;;;;;17.47;33.72;100803.22;4416505;32;19997;-57
2021/03/23 02:09:59;;;;;;;;;;;;;;;17.53;33.61;100797.25;4417656;32;19951;-53
2021/03/23 02:12:25;;;;;;;;;;;;;;;17.58;33.51;100798.28;4417600;32;20599;-57
2021/03/23 02:14:51;;;;;;;;;;;;;;;17.52;33.60;100806.87;4417532;32;19981;-57
2021/03/23 02:17:17;;;;;;;;;;;;;;;17.53;33.66;100803.44;4416797;32;19968;-57
2021/03/23 02:19:43;;;;;;;;;;;;;;;17.50;33.63;100797.16;4415227;32;20013;-57
2021/03/23 02:22:09;;;;;;;;;;;;;;;17.52;33.64;100800.72;4416889;32;19957;-57
2021/03/23 02:24:34;;;;;;;;;;;;;;;17.54;33.61;100802.56;4417786;32;19956;-56
2021/03/23 02:27:00;;;;;;;;;;;;;;;17.59;33.46;100783.38;4416780;32;20392;-57
2021/03/23 02:29:26;;;;;;;;;;;;;;;17.58;33.53;100792.13;4415982;32;19957;-56
2021/03/23 02:31:53;;;;;;;;;;;;;;;17.54;33.57;100791.12;4418031;32;20370;-57
2021/03/23 02:34:19;;;;;;;;;;;;;;;17.48;33.65;100789.22;4416497;32;19958;-57
2021/03/23 02:36:45;;;;;;;;;;;;;;;17.48;33.64;100793.59;4416799;32;19989;-57
2021/03/23 02:39:11;;;;;;;;;;;;;;;17.54;33.60;100788.50;4416885;32;19989;-55
2021/03/23 02:41:36;;;;;;;;;;;;;;;17.48;33.65;100794.47;4416743;32;19938;-56
2021/03/23 02:44:02;;;;;;;;;;;;;;;17.48;33.67;100781.31;4416664;32;19954;-57
2021/03/23 02:46:28;;;;;;;;;;;;;;;17.52;33.57;100784.94;4417275;32;20036;-57
2021/03/23 02:48:54;;;;;;;;;;;;;;;17.56;33.59;100786.81;4416312;32;20002;-57
2021/03/23 02:51:20;;;;;;;;;;;;;;;17.54;33.50;100783.22;4417070;32;19951;-57
2021/03/23 02:53:46;;;;;;;;;;;;;;;17.52;33.62;100777.03;4417465;32;20292;-57
2021/03/23 02:56:12;;;;;;;;;;;;;;;17.51;33.64;100783.16;4417026;32;19958;-56
2021/03/23 02:58:38;;;;;;;;;;;;;;;17.54;33.51;100777.97;4407829;32;20324;-57
2021/03/23 03:01:04;;;;;;;;;;;;;;;17.54;33.57;100784.12;4401717;32;19982;-56
2021/03/23 03:03:29;;;;;;;;;;;;;;;17.52;33.60;100784.94;4410327;32;20384;-57
2021/03/23 03:05:55;;;;;;;;;;;;;;;17.51;33.62;100784.03;4419840;32;19946;-57
2021/03/23 03:08:21;;;;;;;;;;;;;;;17.48;33.66;100789.22;4419042;32;19985;-57
2021/03/23 03:10:47;;;;;;;;;;;;;;;17.49;33.65;100790.13;4418351;32;20366;-55
2021/03/23 03:13:13;;;;;;;;;;;;;;;17.51;33.64;100798.94;4419877;32;19950;-56
2021/03/23 03:15:39;;;;;;;;;;;;;;;17.49;33.66;100792.75;4419007;32;20364;-57
2021/03/23 03:18:05;;;;;;;;;;;;;;;17.55;33.58;100803.44;4418661;32;20001;-57
2021/03/23 03:20:31;;;;;;;;;;;;;;;17.47;33.69;100802.31;4420009;32;20002;-57
2021/03/23 03:22:56;;;;;;;;;;;;;;;17.49;33.71;100798.88;4419163;32;20017;-58
2021/03/23 03:25:23;;;;;;;;;;;;;;;17.51;33.65;100804.22;4419764;32;20184;-57
2021/03/23 03:27:48;;;;;;;;;;;;;;;17.46;33.68;100801.44;4419960;32;19987;-57
2021/03/23 03:30:14;;;;;;;;;;;;;;;17.52;33.65;100806.00;4419407;32;20343;-56
2021/03/23 03:32:40;;;;;;;;;;;;;;;17.51;33.65;100798.94;4418347;32;19966;-57
2021/03/23 03:35:06;;;;;;;;;;;;;;;17.52;33.59;100800.72;4416892;32;19998;-57
2021/03/23 03:37:32;;;;;;;;;;;;;;;17.46;33.75;100797.91;4419205;32;19972;-57
2021/03/23 03:39:58;;;;;;;;;;;;;;;17.47;33.72;100797.03;4418164;32;19970;-57
2021/03/23 03:42:24;;;;;;;;;;;;;;;17.50;33.64;100798.03;4419036;32;20014;-57
2021/03/23 03:44:49;;;;;;;;;;;;;;;17.48;33.68;100794.47;4419512;32;20014;-57
2021/03/23 03:47:15;;;;;;;;;;;;;;;17.48;33.72;100793.59;4418637;32;20307;-57
2021/03/23 03:49:41;;;;;;;;;;;;;;;17.47;33.70;100802.31;4420038;32;19970;-57
2021/03/23 03:52:07;;;;;;;;;;;;;;;17.48;33.65;100798.84;4419227;32;19985;-57
2021/03/23 03:54:33;;;;;;;;;;;;;;;17.44;33.75;100795.22;4418591;32;20002;-57
2021/03/23 03:56:59;;;;;;;;;;;;;;;17.48;33.76;100791.84;4417758;32;20557;-57
2021/03/23 03:59:25;;;;;;;;;;;;;;;17.44;33.86;100797.88;4410881;32;19969;-57
2021/03/23 04:01:51;;;;;;;;;;;;;;;17.40;33.82;100802.13;4404399;32;20017;-57
2021/03/23 04:04:17;;;;;;;;;;;;;;;17.42;33.84;100800.44;4409052;32;19954;-57
2021/03/23 04:06:43;;;;;;;;;;;;;;;17.44;33.83;100803.13;4419313;32;19993;-57
2021/03/23 04:09:09;;;;;;;;;;;;;;;17.45;33.79;100804.00;4418744;32;20323;-57
2021/03/23 04:11:35;;;;;;;;;;;;;;;17.42;33.86;100796.94;4418871;32;19949;-58
2021/03/23 04:14:00;;;;;;;;;;;;;;;17.46;33.73;100796.16;4418297;32;19962;-56
2021/03/23 04:16:26;;;;;;;;;;;;;;;17.41;33.90;100803.91;4418988;32;19958;-57
2021/03/23 04:18:52;;;;;;;;;;;;;;;17.46;33.76;100800.53;4418314;32;20334;-57
2021/03/23 04:21:18;;;;;;;;;;;;;;;17.41;33.78;100801.28;4418440;32;19946;-56
2021/03/23 04:23:44;;;;;;;;;;;;;;;17.37;33.92;100802.03;4418705;32;20616;-57
2021/03/23 04:26:10;;;;;;;;;;;;;;;17.37;33.88;100803.78;4419328;32;19991;-57
2021/03/23 04:28:38;;;;;;;;;;;;;;;17.40;33.89;100796.87;4418839;32;19938;-57
2021/03/23 04:31:04;;;;;;;;;;;;;;;17.42;33.87;100799.56;4418035;32;20036;-57
2021/03/23 04:33:30;;;;;;;;;;;;;;;17.31;34.05;100796.56;4419000;32;19954;-57
2021/03/23 04:35:56;;;;;;;;;;;;;;;17.34;34.06;100791.41;4419238;32;19961;-57
2021/03/23 04:38:21;;;;;;;;;;;;;;;17.40;33.85;100791.59;4417357;32;19951;-57
2021/03/23 04:40:47;;;;;;;;;;;;;;;17.33;34.01;100797.50;4418330;32;19942;-56
2021/03/23 04:43:13;;;;;;;;;;;;;;;17.35;34.00;100792.31;4417599;32;19996;-57
2021/03/23 04:45:40;;;;;;;;;;;;;;;17.30;34.10;100789.53;4416753;32;20373;-56
2021/03/23 04:48:06;;;;;;;;;;;;;;;17.36;33.99;100804.62;4417179;32;19969;-57
2021/03/23 04:50:32;;;;;;;;;;;;;;;17.37;33.95;100807.31;4417741;32;20359;-57
2021/03/23 04:52:58;;;;;;;;;;;;;;;17.32;34.07;100808.88;4417940;32;19934;-57
2021/03/23 04:55:24;;;;;;;;;;;;;;;17.31;34.09;100807.09;4417579;32;19955;-57
2021/03/23 04:57:50;;;;;;;;;;;;;;;17.36;34.02;100805.53;4418380;32;19991;-55
2021/03/23 05:00:16;;;;;;;;;;;;;;;17.34;33.93;100812.47;4416713;32;19954;-57
2021/03/23 05:02:42;;;;;;;;;;;;;;;17.31;34.07;100814.13;4419024;32;20348;-57
2021/03/23 05:05:08;;;;;;;;;;;;;;;17.31;34.06;100812.38;4418581;32;19970;-57
2021/03/23 05:07:34;;;;;;;;;;;;;;;17.32;34.02;100811.50;4416990;32;19950;-58
2021/03/23 05:09:59;;;;;;;;;;;;;;;17.33;34.05;100818.56;4418689;32;20278;-58
2021/03/23 05:12:25;;;;;;;;;;;;;;;17.28;34.14;100818.44;4418063;32;20320;-57
2021/03/23 05:14:51;;;;;;;;;;;;;;;17.28;34.16;100817.53;4417963;32;19986;-57
2021/03/23 05:17:17;;;;;;;;;;;;;;;17.37;34.00;100816.94;4417284;32;19942;-57
2021/03/23 05:19:43;;;;;;;;;;;;;;;17.32;34.03;100819.41;4418334;32;19998;-57
2021/03/23 05:22:09;;;;;;;;;;;;;;;17.30;34.04;100807.94;4417719;32;19939;-57
2021/03/23 05:24:35;;;;;;;;;;;;;;;17.28;34.08;100818.44;4418181;32;19949;-57
2021/03/23 05:27:01;;;;;;;;;;;;;;;17.29;34.05;100821.97;4416117;32;19973;-57
2021/03/23 05:29:26;;;;;;;;;;;;;;;17.33;34.06;100818.56;4416207;32;19978;-57
2021/03/23 05:31:52;;;;;;;;;;;;;;;17.22;34.17;100812.97;4418399;32;19985;-58
2021/03/23 05:34:18;;;;;;;;;;;;;;;17.27;34.01;100827.16;4418144;32;20519;-57
2021/03/23 05:36:44;;;;;;;;;;;;;;;17.23;34.10;100829.66;4418084;32;19995;-58
2021/03/23 05:39:10;;;;;;;;;;;;;;;17.30;34.02;100825.50;4416343;32;19958;-56
2021/03/23 05:41:36;;;;;;;;;;;;;;;17.30;33.98;100836.03;4418416;32;19984;-57
2021/03/23 05:44:02;;;;;;;;;;;;;;;17.29;34.05;100824.59;4417814;32;19994;-56
2021/03/23 05:46:28;;;;;;;;;;;;;;;17.26;34.01;100830.63;4417754;32;20033;-57
2021/03/23 05:48:54;;;;;;;;;;;;;;;17.28;34.07;100830.69;4416835;32;19965;-57
2021/03/23 05:51:21;;;;;;;;;;;;;;;17.25;34.09;100836.75;4417394;32;19946;-57
2021/03/23 05:53:47;;;;;;;;;;;;;;;17.28;33.97;100838.59;4418332;32;20032;-59
2021/03/23 05:56:12;;;;;;;;;;;;;;;17.31;33.94;100838.69;4417624;32;20064;-57
2021/03/23 05:58:38;;;;;;;;;;;;;;;17.29;33.98;100843.00;4417303;32;19946;-55
2021/03/23 06:01:04;;;;;;;;;;;;;;;17.31;33.97;100840.44;4411605;32;19954;-59
2021/03/23 06:03:30;;;;;;;;;;;;;;;17.25;33.99;100846.41;4403058;32;19991;-59
2021/03/23 06:05:56;;;;;;;;;;;;;;;17.24;34.05;100847.25;4415009;32;19980;-59
2021/03/23 06:08:25;;;;;;;;;;;;;;;17.23;34.05;100846.34;4415615;32;19968;-59
2021/03/23 06:10:51;;;;;;;;;;;;;;;17.24;34.05;100852.50;4416085;32;20303;-59
2021/03/23 06:13:17;;;;;;;;;;;;;;;17.28;33.96;100851.75;4416748;32;19954;-59
2021/03/23 06:15:43;;;;;;;;;;;;;;;17.24;34.05;100860.41;4416463;32;19999;-59
2021/03/23 06:18:09;;;;;;;;;;;;;;;17.22;34.06;100855.09;4416091;32;20360;-58
2021/03/23 06:20:35;;;;;;;;;;;;;;;17.27;33.96;100855.25;4417954;32;19992;-58
2021/03/23 06:23:01;;;;;;;;;;;;;;;17.27;33.99;100863.13;4418166;32;20002;-60
2021/03/23 06:25:27;;;;;;;;;;;;;;;17.29;33.93;100856.19;4416978;32;20009;-59
2021/03/23 06:27:53;;;;;;;;;;;;;;;17.30;33.95;100859.72;4417802;32;19999;-60
2021/03/23 06:30:19;;;;;;;;;;;;;;;17.33;33.88;100867.72;4415477;32;19945;-57
2021/03/23 06:32:44;;;;;;;;;;;;;;;17.24;33.99;100863.03;4416992;32;20089;-56
2021/03/23 06:35:10;;;;;;;;;;;;;;;17.29;33.95;100866.72;4416793;32;19988;-56
2021/03/23 06:37:36;;;;;;;;;;;;;;;17.25;34.02;100872.72;4417554;32;19954;-56
2021/03/23 06:40:02;;;;;;;;;;;;;;;17.22;34.08;100870.87;4420398;32;20491;-56
2021/03/23 06:42:28;;;;;;;;;;;;;;;17.26;33.98;100869.25;4419094;32;19982;-56
2021/03/23 06:44:54;;;;;;;;;;;;;;;17.24;34.04;100868.31;4418851;32;19938;-57
2021/03/23 06:47:20;;;;;;;;;;;;;;;17.27;34.02;100873.66;4418982;32;20208;-57
2021/03/23 06:49:46;;;;;;;;;;;;;;;17.29;33.95;100871.97;4419726;32;19962;-57
2021/03/23 06:52:12;;;;;;;;;;;;;;;17.26;33.95;100880.66;4419660;32;20000;-56
2021/03/23 06:54:38;;;;;;;;;;;;;;;17.25;34.01;100876.22;4419300;32;19946;-57
2021/03/23 06:57:04;;;;;;;;;;;;;;;17.26;33.99;100877.13;4419437;32;19962;-59
2021/03/23 06:59:30;;;;;;;;;;;;;;;17.22;34.04;100875.22;4414830;32;19965;-59
2021/03/23 07:02:03;;;;;;;;;;;;;;;17.18;34.13;100870.72;4403546;32;19968;-59
2021/03/23 07:04:29;;;;;;;;;;;;;;;17.28;33.96;100872.81;4396762;32;19990;-59
2021/03/23 07:06:55;;;;;;;;;;;;;;;17.26;34.02;100869.25;4413719;32;20018;-58
2021/03/23 07:09:22;;;;;;;;;;;;;;;17.25;34.02;100878.00;4418193;32;19955;-59
2021/03/23 07:11:48;;;;;;;;;;;;;;;17.21;34.06;100868.19;4419951;32;19965;-59
2021/03/23 07:14:13;;;;;;;;;;;;;;;17.25;34.01;100870.09;4418267;32;19966;-57
2021/03/23 07:16:39;;;;;;;;;;;;;;;17.23;34.01;100871.78;4411970;32;20390;-60
2021/03/23 07:19:05;;;;;;;;;;;;;;;17.24;34.02;100878.84;4418655;32;19950;-58
2021/03/23 07:21:31;;;;;;;;;;;;;;;17.30;33.94;100876.38;4420106;32;20012;-59
2021/03/23 07:23:57;;;;;;;;;;;;;;;17.19;34.08;100883.03;4420369;32;20734;-59
2021/03/23 07:26:23;;;;;;;;;;;;;;;17.25;33.98;100886.75;4419575;32;20072;-59
2021/03/23 07:28:49;;;;;;;;;;;;;;;17.22;34.05;100891.94;4418562;32;19946;-58
2021/03/23 07:31:15;;;;;;;;;;;;;;;17.24;34.04;100894.63;4418952;32;19955;-60
2021/03/23 07:33:42;;;;;;;;;;;;;;;17.28;33.94;100896.50;4420513;32;19977;-60
2021/03/23 07:36:08;;;;;;;;;;;;;;;17.29;33.95;100908.81;4419017;32;19946;-59
2021/03/23 07:38:34;;;;;;;;;;;;;;;17.24;34.03;100913.06;4419308;32;19950;-59
2021/03/23 07:41:00;;;;;;;;;;;;;;;17.27;34.01;100910.50;4420252;32;19957;-59
2021/03/23 07:43:26;;;;;;;;;;;;;;;17.29;33.95;100908.81;4408218;32;19957;-59
2021/03/23 07:45:53;;;;;;;;;;;;;;;17.22;34.09;100904.19;4416261;32;20007;-59
2021/03/23 07:48:19;;;;;;;;;;;;;;;17.31;33.93;100906.25;4418139;32;19967;-59
2021/03/23 07:50:45;;;;;;;;;;;;;;;17.28;33.99;100907.03;4419608;32;19950;-59
2021/03/23 07:53:11;;;;;;;;;;;;;;;17.22;34.09;100906.81;4419094;32;20002;-57
2021/03/23 07:55:37;;;;;;;;;;;;;;;17.29;33.97;100908.81;4419696;32;20020;-60
2021/03/23 07:58:02;;;;;;;;;;;;;;;17.35;33.86;100914.31;4418560;32;20068;-59
2021/03/23 08:00:28;;;;;;;;;;;;;;;17.32;33.92;100919.44;4417719;32;20346;-59
2021/03/23 08:02:54;;;;;;;;;;;;;;;17.37;33.83;100928.41;4418499;32;20087;-59
2021/03/23 08:05:20;;;;;;;;;;;;;;;17.35;33.87;100940.62;4415331;32;19950;-59
2021/03/23 08:07:46;;;;;;;;;;;;;;;17.37;33.82;100936.31;4419085;32;19942;-59
2021/03/23 08:10:12;;;;;;;;;;;;;;;17.39;33.82;100936.34;4418764;32;19969;-59
2021/03/23 08:12:38;;;;;;;;;;;;;;;17.40;33.80;100940.75;4419118;32;19952;-59
2021/03/23 08:15:04;;;;;;;;;;;;;;;17.38;33.83;100945.09;4416670;32;19942;-59
2021/03/23 08:17:30;;;;;;;;;;;;;;;17.38;33.84;100950.34;4418922;32;19950;-59
2021/03/23 08:19:56;;;;;;;;;;;;;;;17.42;33.75;100957.53;4417542;32;19938;-60
2021/03/23 08:22:21;;;;;;;;;;;;;;;17.44;33.75;100949.66;4419755;32;19957;-56
2021/03/23 08:24:47;;;;;;;;;;;;;;;17.45;33.71;100952.37;4418414;32;20327;-57
2021/03/23 08:27:13;;;;;;;;;;;;;;;17.46;33.71;100947.97;4413983;32;20339;-59
2021/03/23 08:29:39;;;;;;;;;;;;;;;17.46;33.72;100954.16;4415781;32;19958;-59
2021/03/23 08:32:05;;;;;;;;;;;;;;;17.47;33.69;100949.75;4416877;32;20014;-59
2021/03/23 08:34:31;;;;;;;;;;;;;;;17.48;33.68;100957.72;4416769;32;19974;-59
2021/03/23 08:36:58;;;;;;;;;;;;;;;17.52;33.64;100953.47;4417540;32;19964;-59
2021/03/23 08:39:24;;;;;;;;;;;;;;;17.52;33.64;100961.38;4405438;32;19954;-59
2021/03/23 08:41:50;;;;;;;;;;;;;;;17.52;33.66;100964.88;4402175;32;19989;-59
2021/03/23 08:44:16;;;;;;;;;;;;;;;17.52;33.69;100969.25;4401433;32;19960;-59
2021/03/23 08:46:42;;;;;;;;;;;;;;;17.51;33.70;100962.22;4402798;32;20308;-59
2021/03/23 08:49:10;;;;;;;;;;;;;;;17.52;33.69;100958.72;4406435;32;20347;-58
2021/03/23 08:51:36;;;;;;;;;;;;;;;17.56;33.65;100955.34;4417812;32;19969;-59
2021/03/23 08:54:02;;;;;;;;;;;;;;;17.58;33.64;100951.03;4418301;32;19951;-59
2021/03/23 08:56:28;;;;;;;;;;;;;;;17.59;33.64;100954.56;4416378;32;19973;-58
2021/03/23 08:58:55;;;;;;;;;;;;;;;17.60;33.64;100952.00;4411961;32;19958;-58
2021/03/23 09:01:21;;;;;;;;;;;;;;;17.62;33.63;100955.56;4402006;32;20283;-59
2021/03/23 09:03:47;;;;;;;;;;;;;;;17.64;33.60;100959.13;4404571;32;20001;-59
2021/03/23 09:06:13;;;;;;;;;;;;;;;17.63;33.63;100965.25;4416965;32;19997;-59
2021/03/23 09:08:40;;;;;;;;;;;;;;;17.64;33.62;100964.41;4416400;32;20000;-59
2021/03/23 09:11:07;;;;;;;;;;;;;;;17.67;33.62;100969.75;4415910;32;19950;-58
2021/03/23 09:13:33;;;;;;;;;;;;;;;17.66;33.65;100967.97;4417223;32;19954;-59
2021/03/23 09:15:59;;;;;;;;;;;;;;;17.68;33.59;100961.00;4415999;32;19980;-56
2021/03/23 09:18:27;;;;;;;;;;;;;;;17.70;33.59;100963.72;4413455;32;19972;-56
2021/03/23 09:20:53;;;;;;;;;;;;;;;17.71;33.59;100954.97;4416283;32;19981;-57
2021/03/23 09:23:20;;;;;;;;;;;;;;;17.73;33.59;100952.41;4416665;32;19950;-57
2021/03/23 09:25:46;;;;;;;;;;;;;;;17.74;33.55;100960.31;4415238;32;20320;-55
2021/03/23 09:28:13;;;;;;;;;;;;;;;17.74;33.57;100964.72;4414286;32;19973;-57
2021/03/23 09:30:39;;;;;;;;;;;;;;;17.76;33.59;100957.75;4416302;32;20017;-57
2021/03/23 09:33:05;;;;;;;;;;;;;;;17.77;33.59;100951.63;4415777;32;19955;-56
2021/03/23 09:35:31;;;;;;;;;;;;;;;17.76;33.62;100947.22;4415234;32;19950;-56
2021/03/23 09:37:59;;;;;;;;;;;;;;;17.80;33.60;100938.56;4416370;32;19972;-56
2021/03/23 09:40:25;;;;;;;;;;;;;;;17.77;33.66;100938.47;4416077;32;19954;-56
2021/03/23 09:42:50;;;;;;;;;;;;;;;17.79;33.66;100935.03;4416242;32;19938;-55
2021/03/23 09:45:16;;;;;;;;;;;;;;;17.80;33.64;100942.09;4415861;32;19960;-57
2021/03/23 09:47:42;;;;;;;;;;;;;;;17.83;33.65;100941.28;4415292;32;20003;-56
2021/03/23 09:50:08;;;;;;;;;;;;;;;17.84;33.63;100945.69;4414491;32;19991;-55
2021/03/23 09:52:34;;;;;;;;;;;;;;;17.86;33.57;100938.75;4415485;32;19997;-56
2021/03/23 09:55:01;;;;;;;;;;;;;;;17.87;33.65;100934.38;4415480;32;19998;-57
2021/03/23 09:57:27;;;;;;;;;;;;;;;17.88;33.58;100933.53;4413481;32;19976;-52
2021/03/23 09:59:53;;;;;;;;;;;;;;;16.84;34.55;100937.06;4415965;32;19982;-52
2021/03/23 10:02:19;;;;;;;;;;;;;;;17.08;34.58;100936.19;4415109;32;19958;-57
2021/03/23 10:04:45;;;;;;;;;;;;;;;17.09;34.24;100932.72;4414897;32;19972;-58
2021/03/23 10:07:11;;;;;;;;;;;;;;;16.37;33.95;100939.75;4414504;32;19984;-56
2021/03/23 10:09:37;;;;;;;;;;;;;;;16.07;34.27;100926.31;4415906;32;20334;-55
2021/03/23 10:12:03;;;;;;;;;;;;;;;16.47;34.07;100929.59;4414658;32;19969;-55
2021/03/23 10:14:29;;;;;;;;;;;;;;;16.76;33.45;100928.03;4416094;32;19995;-55
2021/03/23 10:16:55;;;;;;;;;;;;;;;16.92;33.09;100925.94;4415027;32;19954;-58
2021/03/23 10:19:21;;;;;;;;;;;;;;;17.07;32.93;100923.88;4412734;32;19946;-57
2021/03/23 10:21:47;;;;;;;;;;;;;;;17.16;33.28;100927.69;4386563;32;19954;-57
2021/03/23 10:24:14;;;;;;;;;;;;;;;17.22;33.12;100922.59;4400748;32;20383;-57
2021/03/23 10:26:40;;;;;;;;;;;;;;;17.25;33.01;100918.34;4400666;32;19969;-57
2021/03/23 10:29:06;;;;;;;;;;;;;;;17.28;32.94;100922.84;4399685;32;19951;-58
2021/03/23 10:31:31;;;;;;;;;;;;;;;17.32;32.88;100919.44;4399714;32;20001;-57
2021/03/23 10:33:57;;;;;;;;;;;;;;;17.31;32.97;100917.66;4400372;32;19990;-56
2021/03/23 10:36:23;;;;;;;;;;;;;;;17.33;33.03;100923.88;4399697;32;19959;-58
2021/03/23 10:38:50;;;;;;;;;;;;;;;17.38;33.05;100924.94;4399558;32;20351;-57
2021/03/23 10:41:16;;;;;;;;;;;;;;;17.38;33.13;100924.94;4398905;32;20137;-57
2021/03/23 10:43:42;;;;;;;;;;;;;;;17.40;33.23;100920.63;4401573;32;19970;-57
2021/03/23 10:46:08;;;;;;;;;;;;;;;17.40;33.30;100917.97;4393393;32;19953;-58
2021/03/23 10:48:37;;;;;;;;;;;;;;;17.46;33.31;100926.91;4409192;32;19951;-57
2021/03/23 10:51:03;;;;;;;;;;;;;;;17.48;33.25;100925.25;4408845;32;20002;-57
2021/03/23 10:53:29;;;;;;;;;;;;;;;17.48;33.29;100914.72;4400845;32;19988;-57
2021/03/23 10:55:54;;;;;;;;;;;;;;;17.48;33.36;100919.97;4405837;32;19964;-55
2021/03/23 10:58:20;;;;;;;;;;;;;;;17.49;33.37;100913.88;4415298;32;19958;-58
2021/03/23 11:00:46;;;;;;;;;;;;;;;17.51;33.33;100920.97;4414291;32;19938;-58
2021/03/23 11:03:12;;;;;;;;;;;;;;;17.52;33.38;100913.97;4416008;32;19954;-57
2021/03/23 11:05:38;;;;;;;;;;;;;;;17.49;33.50;100916.50;4417131;32;20347;-58
2021/03/23 11:08:04;;;;;;;;;;;;;;;17.51;33.47;100922.72;4415623;32;19973;-57
2021/03/23 11:10:30;;;;;;;;;;;;;;;17.52;33.47;100921.87;4416542;32;19939;-57
2021/03/23 11:12:56;;;;;;;;;;;;;;;17.55;33.45;100916.69;4414878;32;20298;-57
2021/03/23 11:15:22;;;;;;;;;;;;;;;17.55;33.53;100924.59;4414781;32;20354;-57
2021/03/23 11:17:49;;;;;;;;;;;;;;;17.56;33.50;100914.13;4416277;32;19946;-58
2021/03/23 11:20:15;;;;;;;;;;;;;;;17.60;33.49;100907.22;4414898;32;20315;-56
2021/03/23 11:22:41;;;;;;;;;;;;;;;17.61;33.48;100905.47;4416185;32;19996;-58
2021/03/23 11:25:07;;;;;;;;;;;;;;;17.64;33.46;100902.91;4418305;32;19942;-56
2021/03/23 11:27:33;;;;;;;;;;;;;;;17.63;33.53;100904.69;4418937;32;19958;-57
2021/03/23 11:29:59;;;;;;;;;;;;;;;17.70;33.44;100905.75;4418011;32;19973;-56
2021/03/23 11:32:24;;;;;;;;;;;;;;;17.65;33.49;100908.25;4407491;32;19950;-57
2021/03/23 11:34:50;;;;;;;;;;;;;;;17.64;33.57;100910.81;4402719;32;19946;-55
2021/03/23 11:37:16;;;;;;;;;;;;;;;17.66;33.49;100902.13;4412512;32;19950;-57
2021/03/23 11:39:42;;;;;;;;;;;;;;;17.65;33.49;100902.06;4419613;32;20348;-56
2021/03/23 11:42:08;;;;;;;;;;;;;;;17.67;33.48;100903.03;4418843;32;19950;-57
2021/03/23 11:44:34;;;;;;;;;;;;;;;17.71;33.44;100902.28;4418584;32;20295;-57
2021/03/23 11:47:05;;;;;;;;;;;;;;;17.67;33.54;100901.28;4418762;32;19954;-58
2021/03/23 11:49:31;;;;;;;;;;;;;;;17.68;33.66;100903.06;4418345;32;19974;-57
2021/03/23 11:51:57;;;;;;;;;;;;;;;17.69;33.73;100896.06;4417991;32;19973;-57
2021/03/23 11:54:25;;;;;;;;;;;;;;;17.70;33.56;100895.22;4419042;32;20030;-57
2021/03/23 11:56:51;;;;;;;;;;;;;;;17.76;33.56;100897.16;4413887;32;19938;-57
2021/03/23 11:59:17;;;;;;;;;;;;;;;17.73;33.70;100897.94;4401705;32;20030;-57
2021/03/23 12:01:43;;;;;;;;;;;;;;;17.77;33.55;100896.31;4405967;32;19989;-57
2021/03/23 12:04:09;;;;;;;;;;;;;;;17.75;33.71;100887.47;4418034;32;19951;-55
2021/03/23 12:06:35;;;;;;;;;;;;;;;17.78;33.63;100890.19;4418554;32;19995;-57
2021/03/23 12:09:01;;;;;;;;;;;;;;;17.76;33.68;100881.34;4416278;32;19969;-56
2021/03/23 12:11:26;;;;;;;;;;;;;;;17.79;33.69;100884.06;4418899;32;20009;-57
2021/03/23 12:13:52;;;;;;;;;;;;;;;17.76;33.71;100884.87;4418361;32;19976;-54
2021/03/23 12:16:18;;;;;;;;;;;;;;;17.82;33.66;100889.44;4417996;32;20420;-56
2021/03/23 12:18:44;;;;;;;;;;;;;;;17.85;33.53;100876.38;4417981;32;19954;-55
2021/03/23 12:21:10;;;;;;;;;;;;;;;17.93;33.45;100881.88;4417777;32;19934;-58
2021/03/23 12:23:36;;;;;;;;;;;;;;;17.91;33.48;100871.28;4418534;32;19966;-56
2021/03/23 12:26:02;;;;;;;;;;;;;;;17.93;33.49;100874.84;4418069;32;19970;-58
2021/03/23 12:28:28;;;;;;;;;;;;;;;17.96;33.48;100871.44;4417805;32;20013;-58